Pagina principale
METAR-TAF:

METAR-TAF

Aeroporti :

Milano, Italia

Aeroporto di Milano-Malpensa

latitudine: 45-37N, longitudine: 008-44E, altezza: 234 m

Osservazione

Il bollettino è stato emesso 31 minuti fa, alle 07:50 UTC
Vento 3 kt da nord
Temperature 4°C
Umidità 87%
Pressione 1019 hPa
Visibilità 10 km o più
nessuna nube inferiore a 1500 m e nessun cumulonembo

METAR: LIMC 180750Z 01003KT CAVOK 04/02 Q1019 NOSIG

Ora: 09:21 (08:21 UTC)

Previsione

Il bollettino è stato emesso 3 ore e 21 minuti fa, alle 05:00 UTC
Previsione valida dal 18 alle 06 UTC al 19 alle 12 UTC
Vento 5 kt da direzioni variabili
Visibilità 10 km o più
nessuna nube inferiore a 1500 m e nessun cumulonembo
Temporaneamente
dal 19 alle 04 UTC al 19 alle 08 UTC
Visibilità: 3000 m
banchi di nebbia

TAF: LIMC 180500Z 1806/1912 VRB05KT CAVOK TEMPO 1904/1908 3000 BCFG

Osservazioni e previsioni meteorologiche di più di 4000 aeroporti (messaggi METAR e TAF).

Le stazioni disponibili sono rappresentate dai dischi gialli e rossi sulla carta.

Puntare il mouse per vedere il nome della stazione.

Clicca sopra per visualizzare le osservazioni e previsioni meteorologiche.

Per cambiare la mappa : fare clic sui pulsanti verdi con una croce nera per ingrandire, il pulsante verde con un trattino per diminuire, o sulla freccia verde per le mappe adiacenti.


METAR-TAF: